createdAt,value
2022-10-09T00:01:48.732Z,5.63
2022-10-09T00:04:15.853Z,4.32
2022-10-09T00:06:42.967Z,5.13
2022-10-09T00:09:11.407Z,3.83
2022-10-09T00:11:38.659Z,3.75
2022-10-09T00:14:05.884Z,4.00
2022-10-09T00:16:33.239Z,4.30
2022-10-09T00:19:00.532Z,3.95
2022-10-09T00:21:29.528Z,4.70
2022-10-09T00:23:58.869Z,4.22
2022-10-09T00:26:28.459Z,4.60
2022-10-09T00:28:56.198Z,5.10
2022-10-09T00:31:23.893Z,4.07
2022-10-09T00:33:51.260Z,3.20
2022-10-09T00:36:20.154Z,3.90
2022-10-09T00:38:47.720Z,4.53
2022-10-09T00:41:17.809Z,5.05
2022-10-09T00:43:48.520Z,4.10
2022-10-09T00:46:28.419Z,3.80
2022-10-09T00:49:04.182Z,3.95
2022-10-09T00:51:33.594Z,4.70
2022-10-09T00:54:03.775Z,5.00
2022-10-09T00:56:31.049Z,4.38
2022-10-09T00:58:59.852Z,3.80
2022-10-09T01:01:27.216Z,3.28
2022-10-09T01:03:54.453Z,3.65
2022-10-09T01:06:32.228Z,4.20
2022-10-09T01:09:06.105Z,4.00
2022-10-09T01:11:41.301Z,5.03
2022-10-09T01:14:17.691Z,4.38
2022-10-09T01:16:51.165Z,5.80
2022-10-09T01:19:35.845Z,4.60
2022-10-09T01:22:13.471Z,5.05
2022-10-09T01:24:47.762Z,3.25
2022-10-09T01:27:17.894Z,4.03
2022-10-09T01:29:48.247Z,3.33
2022-10-09T01:32:19.809Z,3.42
2022-10-09T01:34:47.826Z,5.53
2022-10-09T01:37:17.423Z,3.10
2022-10-09T01:39:46.209Z,3.33
2022-10-09T01:42:15.188Z,3.58
2022-10-09T01:44:43.678Z,4.07
2022-10-09T01:47:15.080Z,5.53
2022-10-09T01:49:50.022Z,3.83
2022-10-09T01:52:40.413Z,4.07
2022-10-09T01:55:25.641Z,4.00
2022-10-09T02:00:26.212Z,3.83
2022-10-09T02:02:54.953Z,3.38
2022-10-09T02:05:24.873Z,4.15
2022-10-09T02:07:53.168Z,5.38
2022-10-09T02:10:21.924Z,4.07
2022-10-09T02:12:53.810Z,4.78
2022-10-09T02:15:24.208Z,4.18
2022-10-09T02:17:57.288Z,3.70
2022-10-09T02:20:30.107Z,2.03
2022-10-09T02:23:00.357Z,3.33
2022-10-09T02:25:28.400Z,4.18
2022-10-09T02:27:56.073Z,3.83
2022-10-09T02:30:26.894Z,3.53
2022-10-09T02:32:55.460Z,3.10
2022-10-09T02:35:22.562Z,3.53
2022-10-09T02:37:49.677Z,2.63
2022-10-09T02:40:16.813Z,4.55
2022-10-09T02:42:43.950Z,2.70
2022-10-09T02:45:11.225Z,3.75
2022-10-09T02:47:38.318Z,5.15
2022-10-09T02:50:08.360Z,4.18
2022-10-09T02:52:35.483Z,3.17
2022-10-09T02:55:02.707Z,3.70
2022-10-09T02:57:29.816Z,6.72
2022-10-09T02:59:56.921Z,3.10
2022-10-09T03:02:24.227Z,3.30
2022-10-09T03:04:51.374Z,5.88
2022-10-09T03:07:19.869Z,3.28
2022-10-09T03:09:46.973Z,3.72
2022-10-09T03:12:14.106Z,3.30
2022-10-09T03:14:41.324Z,3.17
2022-10-09T03:17:08.417Z,3.72
2022-10-09T03:19:35.500Z,3.50
2022-10-09T03:22:02.632Z,3.75
2022-10-09T03:24:31.088Z,2.50
2022-10-09T03:26:58.175Z,3.78
2022-10-09T03:29:25.305Z,3.05
2022-10-09T03:31:53.535Z,3.10
2022-10-09T03:34:20.904Z,5.13
2022-10-09T03:36:48.103Z,3.33
2022-10-09T03:39:15.229Z,3.15
2022-10-09T03:41:43.670Z,2.00
2022-10-09T03:44:10.794Z,3.50
2022-10-09T03:46:38.119Z,3.83
2022-10-09T03:49:05.257Z,2.85
2022-10-09T03:51:32.375Z,3.53
2022-10-09T03:53:59.498Z,3.67
2022-10-09T03:56:26.576Z,4.18
2022-10-09T03:58:55.129Z,2.95
2022-10-09T04:01:22.340Z,3.28
2022-10-09T04:03:49.517Z,3.15
2022-10-09T04:06:16.833Z,4.38
2022-10-09T04:08:43.933Z,3.22
2022-10-09T04:11:11.018Z,4.57
2022-10-09T04:13:38.276Z,5.82
2022-10-09T04:16:06.935Z,4.78
2022-10-09T04:18:34.046Z,5.57
2022-10-09T04:21:01.169Z,3.10
2022-10-09T04:23:28.322Z,2.88
2022-10-09T04:25:56.693Z,3.70
2022-10-09T04:28:24.128Z,4.30
2022-10-09T04:30:51.587Z,2.50
2022-10-09T04:33:20.629Z,4.38
2022-10-09T04:35:51.496Z,3.30
2022-10-09T04:38:19.510Z,10.10
2022-10-09T04:40:55.850Z,4.47
2022-10-09T04:43:23.108Z,4.63
2022-10-09T04:45:50.312Z,3.92
2022-10-09T04:48:17.446Z,2.92
2022-10-09T04:50:46.248Z,4.88
2022-10-09T04:53:13.671Z,4.85
2022-10-09T04:55:41.779Z,4.75
2022-10-09T04:58:09.281Z,2.78
2022-10-09T05:00:40.391Z,4.90
2022-10-09T05:03:07.695Z,3.80
2022-10-09T05:05:34.812Z,6.25
2022-10-09T05:08:03.626Z,4.97
2022-10-09T05:10:31.532Z,6.47
2022-10-09T05:12:58.807Z,4.88
2022-10-09T05:15:26.268Z,3.65
2022-10-09T05:17:53.521Z,7.57
2022-10-09T05:20:20.726Z,8.55
2022-10-09T05:22:48.216Z,4.10
2022-10-09T05:25:17.068Z,4.93
2022-10-09T05:27:44.173Z,5.20
2022-10-09T05:30:11.747Z,4.38
2022-10-09T05:32:38.871Z,3.85
2022-10-09T05:35:06.808Z,4.03
2022-10-09T05:37:33.919Z,3.72
2022-10-09T05:40:01.033Z,4.88
2022-10-09T05:42:29.472Z,4.35
2022-10-09T05:44:56.555Z,5.25
2022-10-09T05:47:23.707Z,4.22
2022-10-09T05:49:50.792Z,3.67
2022-10-09T05:52:17.866Z,4.72
2022-10-09T05:54:45.119Z,4.90
2022-10-09T05:57:12.224Z,3.45
2022-10-09T05:59:41.687Z,3.60
2022-10-09T06:02:09.217Z,2.85
2022-10-09T06:04:36.332Z,3.88
2022-10-09T06:07:03.446Z,3.58
2022-10-09T06:09:30.655Z,4.22
2022-10-09T06:11:57.795Z,6.22
2022-10-09T06:14:24.914Z,3.58
2022-10-09T06:16:53.521Z,6.38
2022-10-09T06:19:21.083Z,2.60
2022-10-09T06:21:48.444Z,3.65
2022-10-09T06:24:22.263Z,4.78
2022-10-09T06:26:52.832Z,5.70
2022-10-09T06:29:20.299Z,6.93
2022-10-09T06:31:47.385Z,5.60
2022-10-09T06:34:15.872Z,4.45
2022-10-09T06:36:43.035Z,2.28
2022-10-09T06:39:10.846Z,3.22
2022-10-09T06:41:38.004Z,4.05
2022-10-09T06:44:07.731Z,6.05
2022-10-09T06:46:37.253Z,6.55
2022-10-09T06:49:06.545Z,5.18
2022-10-09T06:51:35.763Z,4.30
2022-10-09T06:54:04.997Z,5.05
2022-10-09T06:56:32.470Z,6.32
2022-10-09T06:59:00.038Z,5.65
2022-10-09T07:01:28.874Z,6.05
2022-10-09T07:03:58.359Z,4.82
2022-10-09T07:06:27.547Z,6.30
2022-10-09T07:08:59.575Z,7.53
2022-10-09T07:11:28.592Z,9.07
2022-10-09T07:13:58.610Z,6.68
2022-10-09T07:16:28.063Z,4.60
2022-10-09T07:18:55.601Z,7.22
2022-10-09T07:21:22.900Z,6.03
2022-10-09T07:23:50.320Z,6.40
2022-10-09T07:26:21.280Z,9.73
2022-10-09T07:28:49.354Z,3.78
2022-10-09T07:31:17.426Z,6.10
2022-10-09T07:33:47.244Z,5.18
2022-10-09T07:36:14.452Z,10.13
2022-10-09T07:38:41.597Z,4.63
2022-10-09T07:41:11.459Z,4.40
2022-10-09T07:43:41.466Z,8.05
2022-10-09T07:46:12.251Z,5.72
2022-10-09T07:48:40.063Z,5.07
2022-10-09T07:51:09.024Z,6.93
2022-10-09T07:53:36.339Z,6.25
2022-10-09T07:56:03.540Z,7.57
2022-10-09T07:58:30.707Z,8.55
2022-10-09T08:01:05.151Z,7.63
2022-10-09T08:03:32.813Z,6.38
2022-10-09T08:05:59.991Z,6.18
2022-10-09T08:08:27.173Z,6.45
2022-10-09T08:10:54.370Z,10.32
2022-10-09T08:13:21.676Z,6.80
2022-10-09T08:15:48.909Z,6.45
2022-10-09T08:18:17.491Z,6.45
2022-10-09T08:20:45.002Z,7.18
2022-10-09T08:23:12.749Z,10.45
2022-10-09T08:25:39.864Z,7.43
2022-10-09T08:28:06.998Z,14.75
2022-10-09T08:30:34.232Z,9.20
2022-10-09T08:33:01.469Z,11.82
2022-10-09T08:35:33.727Z,9.70
2022-10-09T08:38:01.609Z,18.95
2022-10-09T08:40:37.764Z,10.95
2022-10-09T08:43:07.126Z,19.17
2022-10-09T08:45:35.751Z,33.95
2022-10-09T08:48:06.371Z,24.95
2022-10-09T08:50:38.927Z,25.58
2022-10-09T08:53:13.730Z,30.63
2022-10-09T08:55:45.423Z,24.25
2022-10-09T08:58:17.169Z,17.98
2022-10-09T09:00:46.400Z,18.30
2022-10-09T09:03:44.816Z,25.05
2022-10-09T09:06:21.900Z,24.35
2022-10-09T09:08:55.465Z,19.17
2022-10-09T09:11:34.093Z,19.55
2022-10-09T09:14:15.595Z,19.88
2022-10-09T09:16:50.379Z,19.35
2022-10-09T09:19:40.906Z,18.88
2022-10-09T09:22:13.274Z,23.30
2022-10-09T09:24:45.020Z,18.75
2022-10-09T09:27:14.785Z,19.73
2022-10-09T09:29:44.904Z,19.02
2022-10-09T09:32:18.199Z,15.82
2022-10-09T09:34:45.630Z,15.40
2022-10-09T09:37:14.367Z,15.30
2022-10-09T09:42:29.766Z,13.52
2022-10-09T09:45:00.341Z,16.50
2022-10-09T09:47:33.643Z,15.73
2022-10-09T09:50:03.491Z,16.37
2022-10-09T09:52:36.932Z,14.48
2022-10-09T09:55:04.970Z,14.48
2022-10-09T09:57:35.750Z,15.82
2022-10-09T10:00:23.869Z,13.13
2022-10-09T10:03:02.544Z,14.95
2022-10-09T10:05:36.093Z,12.65
2022-10-09T10:08:15.715Z,16.55
2022-10-09T10:10:47.304Z,11.32
2022-10-09T10:13:16.217Z,10.73
2022-10-09T10:15:49.563Z,13.48
2022-10-09T10:18:18.595Z,11.93
2022-10-09T10:20:48.183Z,10.52
2022-10-09T10:23:34.562Z,10.18
2022-10-09T10:26:06.753Z,10.90
2022-10-09T10:28:42.624Z,10.48
2022-10-09T10:31:18.483Z,9.80
2022-10-09T10:33:51.960Z,12.85
2022-10-09T10:36:19.344Z,10.85
2022-10-09T10:38:55.242Z,9.82
2022-10-09T10:41:27.399Z,14.73
2022-10-09T10:43:58.811Z,11.10
2022-10-09T10:46:29.319Z,10.52
2022-10-09T10:48:58.693Z,10.50
2022-10-09T10:51:50.228Z,9.10
2022-10-09T10:54:32.139Z,11.75
2022-10-09T10:57:08.818Z,12.05
2022-10-09T10:59:40.029Z,12.45
2022-10-09T11:02:33.921Z,12.23
2022-10-09T11:05:15.402Z,11.75
2022-10-09T11:07:50.226Z,10.60
2022-10-09T11:10:27.455Z,11.63
2022-10-09T11:13:01.097Z,15.18
2022-10-09T11:15:36.521Z,17.58
2022-10-09T11:18:23.222Z,14.32
2022-10-09T11:21:06.475Z,15.25
2022-10-09T11:23:47.315Z,18.80
2022-10-09T11:26:25.692Z,15.30
2022-10-09T11:29:01.352Z,12.93
2022-10-09T11:31:32.499Z,17.77
2022-10-09T11:34:05.068Z,11.88
2022-10-09T11:36:37.280Z,14.98
2022-10-09T11:39:06.396Z,12.38
2022-10-09T11:41:36.084Z,10.93
2022-10-09T11:44:35.915Z,11.65
2022-10-09T11:47:10.038Z,13.18
2022-10-09T11:52:18.842Z,10.63
2022-10-09T11:54:46.010Z,13.27
2022-10-09T11:57:15.489Z,9.80
2022-10-09T11:59:42.819Z,10.60
2022-10-09T12:02:24.224Z,11.18
2022-10-09T12:04:55.642Z,12.15
2022-10-09T12:07:30.224Z,9.93
2022-10-09T12:10:01.485Z,12.82
2022-10-09T12:12:30.810Z,9.27
2022-10-09T12:14:58.019Z,13.63
2022-10-09T12:17:33.962Z,12.93
2022-10-09T12:20:07.442Z,8.75
2022-10-09T12:22:37.201Z,9.30
2022-10-09T12:25:08.312Z,12.07
2022-10-09T12:27:40.928Z,8.35
2022-10-09T12:30:18.681Z,8.27
2022-10-09T12:32:50.935Z,9.93
2022-10-09T12:35:22.693Z,7.75
2022-10-09T12:37:49.877Z,7.15
2022-10-09T12:40:21.159Z,9.25
2022-10-09T12:42:51.381Z,8.85
2022-10-09T12:45:21.232Z,10.32
2022-10-09T12:47:48.893Z,7.75
2022-10-09T12:50:24.386Z,8.10
2022-10-09T12:52:53.123Z,7.68
2022-10-09T12:55:25.737Z,9.23
2022-10-09T12:57:56.294Z,9.05
2022-10-09T13:00:23.499Z,7.78
2022-10-09T13:02:51.163Z,8.00
2022-10-09T13:05:18.569Z,8.13
2022-10-09T13:07:52.410Z,8.52
2022-10-09T13:10:22.333Z,7.95
2022-10-09T13:12:51.769Z,6.68
2022-10-09T13:15:33.426Z,7.18
2022-10-09T13:18:01.394Z,7.32
2022-10-09T13:20:30.723Z,7.30
2022-10-09T13:23:00.054Z,7.28
2022-10-09T13:25:32.273Z,7.38
2022-10-09T13:27:59.439Z,5.72
2022-10-09T13:30:26.650Z,5.15
2022-10-09T13:32:55.194Z,5.15
2022-10-09T13:35:22.358Z,6.32
2022-10-09T13:37:49.820Z,5.60
2022-10-09T13:40:19.150Z,7.10
2022-10-09T13:42:52.778Z,5.53
2022-10-09T13:45:20.391Z,6.20
2022-10-09T13:47:47.845Z,5.55
2022-10-09T13:50:17.213Z,6.95
2022-10-09T13:52:44.362Z,5.32
2022-10-09T13:55:11.791Z,5.80
2022-10-09T13:57:38.937Z,6.90
2022-10-09T14:00:07.458Z,5.90
2022-10-09T14:02:34.565Z,5.22
2022-10-09T14:05:01.701Z,6.47
2022-10-09T14:07:30.374Z,12.07
2022-10-09T14:09:57.529Z,6.30
2022-10-09T14:12:25.118Z,5.65
2022-10-09T14:14:53.140Z,4.47
2022-10-09T14:17:20.383Z,5.85
2022-10-09T14:19:47.505Z,4.70
2022-10-09T14:22:14.702Z,6.20
2022-10-09T14:24:43.151Z,3.88
2022-10-09T14:27:10.419Z,4.18
2022-10-09T14:29:37.776Z,5.70
2022-10-09T14:32:05.433Z,5.05
2022-10-09T14:34:32.591Z,3.88
2022-10-09T14:36:59.702Z,4.68
2022-10-09T14:39:26.830Z,5.55
2022-10-09T14:41:55.312Z,5.47
2022-10-09T14:44:22.442Z,6.63
2022-10-09T14:46:49.574Z,5.45
2022-10-09T14:49:16.823Z,5.55
2022-10-09T14:51:43.956Z,4.68
2022-10-09T14:54:12.114Z,6.32
2022-10-09T14:56:39.678Z,5.43
2022-10-09T14:59:08.135Z,4.95
2022-10-09T15:01:35.774Z,3.15
2022-10-09T15:04:03.901Z,5.10
2022-10-09T15:06:31.253Z,3.75
2022-10-09T15:09:03.091Z,3.60
2022-10-09T15:11:33.861Z,4.13
2022-10-09T15:14:01.437Z,3.85
2022-10-09T15:16:29.984Z,3.40
2022-10-09T15:18:57.117Z,4.18
2022-10-09T15:21:26.868Z,4.50
2022-10-09T15:23:55.567Z,4.80
2022-10-09T15:26:23.284Z,4.28
2022-10-09T15:28:50.450Z,4.07
2022-10-09T15:31:22.252Z,4.95
2022-10-09T15:33:52.730Z,3.40
2022-10-09T15:36:20.517Z,6.05
2022-10-09T15:38:48.324Z,4.03
2022-10-09T15:41:22.965Z,3.33
2022-10-09T15:43:50.309Z,4.88
2022-10-09T15:46:17.688Z,4.28
2022-10-09T15:48:45.170Z,4.97
2022-10-09T15:51:13.681Z,3.55
2022-10-09T15:53:41.970Z,4.18
2022-10-09T15:56:11.835Z,4.32
2022-10-09T15:58:38.961Z,4.85
2022-10-09T16:01:08.245Z,3.25
2022-10-09T16:03:37.206Z,4.22
2022-10-09T16:06:07.414Z,3.05
2022-10-09T16:08:36.504Z,4.57
2022-10-09T16:11:05.641Z,3.60
2022-10-09T16:13:35.608Z,4.35
2022-10-09T16:16:04.601Z,3.17
2022-10-09T16:18:31.722Z,3.28
2022-10-09T16:21:04.240Z,5.85
2022-10-09T16:23:31.442Z,3.33
2022-10-09T16:26:01.408Z,3.85
2022-10-09T16:28:28.775Z,4.03
2022-10-09T16:30:56.236Z,5.13
2022-10-09T16:33:23.325Z,3.78
2022-10-09T16:35:50.637Z,3.53
2022-10-09T16:38:18.090Z,3.25
2022-10-09T16:41:02.561Z,3.72
2022-10-09T16:43:33.853Z,4.55
2022-10-09T16:46:12.639Z,4.32
2022-10-09T16:48:39.773Z,3.58
2022-10-09T16:51:11.129Z,3.95
2022-10-09T16:53:38.510Z,3.40
2022-10-09T16:56:10.005Z,3.30
2022-10-09T16:58:38.842Z,3.83
2022-10-09T17:01:09.799Z,3.63
2022-10-09T17:03:38.092Z,2.80
2022-10-09T17:06:07.614Z,2.95
2022-10-09T17:08:34.724Z,3.60
2022-10-09T17:11:02.005Z,3.25
2022-10-09T17:13:29.114Z,2.30
2022-10-09T17:15:57.610Z,3.05
2022-10-09T17:18:24.768Z,3.47
2022-10-09T17:20:51.894Z,4.18
2022-10-09T17:23:19.016Z,5.35
2022-10-09T17:25:46.155Z,4.05
2022-10-09T17:28:13.317Z,3.53
2022-10-09T17:30:40.839Z,2.88
2022-10-09T17:33:09.344Z,3.38
2022-10-09T17:35:39.507Z,4.18
2022-10-09T17:38:07.492Z,4.40
2022-10-09T17:40:37.652Z,4.82
2022-10-09T17:43:04.982Z,2.90
2022-10-09T17:45:39.132Z,3.80
2022-10-09T17:48:07.216Z,4.07
2022-10-09T17:50:36.409Z,3.63
2022-10-09T17:53:03.974Z,4.72
2022-10-09T17:55:31.728Z,3.63
2022-10-09T17:57:58.919Z,3.15
2022-10-09T18:00:26.084Z,3.55
2022-10-09T18:02:53.195Z,3.78
2022-10-09T18:05:20.294Z,3.15
2022-10-09T18:07:48.991Z,4.30
2022-10-09T18:10:16.512Z,4.57
2022-10-09T18:12:43.694Z,4.35
2022-10-09T18:15:11.052Z,4.60
2022-10-09T18:17:38.288Z,3.30
2022-10-09T18:20:06.381Z,4.38
2022-10-09T18:22:36.084Z,4.72
2022-10-09T18:25:05.700Z,4.35
2022-10-09T18:27:32.829Z,4.70
2022-10-09T18:29:59.975Z,4.65
2022-10-09T18:32:27.180Z,4.28
2022-10-09T18:34:54.346Z,4.70
2022-10-09T18:37:21.555Z,3.97
2022-10-09T18:39:48.668Z,3.42
2022-10-09T18:42:17.149Z,3.60
2022-10-09T18:44:44.263Z,5.72
2022-10-09T18:47:15.494Z,4.50
2022-10-09T18:49:46.862Z,4.53
2022-10-09T18:52:15.083Z,4.28
2022-10-09T18:54:45.735Z,4.65
2022-10-09T18:57:12.944Z,4.47
2022-10-09T18:59:42.050Z,4.68
2022-10-09T19:02:09.170Z,4.10
2022-10-09T19:04:36.282Z,5.45
2022-10-09T19:07:03.798Z,4.70
2022-10-09T19:09:30.925Z,4.53
2022-10-09T19:11:58.041Z,6.57
2022-10-09T19:14:25.145Z,4.60
2022-10-09T19:16:53.805Z,4.10
2022-10-09T19:19:20.911Z,5.32
2022-10-09T19:21:48.015Z,5.65
2022-10-09T19:24:15.131Z,3.72
2022-10-09T19:26:42.265Z,4.80
2022-10-09T19:29:09.733Z,4.50
2022-10-09T19:31:36.911Z,5.00
2022-10-09T19:34:05.902Z,3.80
2022-10-09T19:36:33.032Z,6.13
2022-10-09T19:39:00.460Z,5.40
2022-10-09T19:41:27.793Z,5.00
2022-10-09T19:43:55.025Z,5.82
2022-10-09T19:46:22.166Z,5.70
2022-10-09T19:48:49.359Z,5.20
2022-10-09T19:51:20.238Z,4.72
2022-10-09T19:53:48.090Z,4.85
2022-10-09T19:56:18.119Z,4.38
2022-10-09T19:58:47.297Z,4.60
2022-10-09T20:01:16.284Z,5.53
2022-10-09T20:03:43.837Z,4.63
2022-10-09T20:06:11.682Z,6.63
2022-10-09T20:08:42.308Z,5.47
2022-10-09T20:11:09.552Z,4.82
2022-10-09T20:13:38.150Z,5.18
2022-10-09T20:16:08.699Z,5.50
2022-10-09T20:18:35.921Z,4.68
2022-10-09T20:21:03.050Z,5.30
2022-10-09T20:23:30.359Z,5.53
2022-10-09T20:26:03.970Z,6.40
2022-10-09T20:28:32.205Z,6.47
2022-10-09T20:31:01.183Z,6.13
2022-10-09T20:33:28.281Z,5.72
2022-10-09T20:35:55.408Z,6.25
2022-10-09T20:38:25.723Z,6.68
2022-10-09T20:40:53.376Z,6.32
2022-10-09T20:43:21.849Z,6.03
2022-10-09T20:45:48.942Z,6.00
2022-10-09T20:48:16.105Z,5.90
2022-10-09T20:50:43.236Z,5.60
2022-10-09T20:53:10.802Z,6.57
2022-10-09T20:55:37.951Z,8.82
2022-10-09T20:58:05.089Z,8.00
2022-10-09T21:00:33.559Z,5.70
2022-10-09T21:03:00.735Z,5.88
2022-10-09T21:05:27.846Z,5.15
2022-10-09T21:07:54.948Z,5.30
2022-10-09T21:10:22.039Z,5.15
2022-10-09T21:12:49.560Z,8.18
2022-10-09T21:15:16.985Z,6.70
2022-10-09T21:17:45.463Z,5.57
2022-10-09T21:20:12.623Z,4.55
2022-10-09T21:22:39.705Z,4.10
2022-10-09T21:25:07.470Z,4.50
2022-10-09T21:27:34.710Z,4.65
2022-10-09T21:30:01.915Z,5.53
2022-10-09T21:32:29.086Z,6.68
2022-10-09T21:34:57.561Z,4.65
2022-10-09T21:37:24.669Z,6.68
2022-10-09T21:39:51.764Z,4.93
2022-10-09T21:42:18.995Z,5.35
2022-10-09T21:44:46.103Z,4.68
2022-10-09T21:47:16.303Z,6.13
2022-10-09T21:49:43.440Z,4.57
2022-10-09T21:52:12.041Z,5.25
2022-10-09T21:54:39.161Z,6.72
2022-10-09T21:57:06.393Z,6.30
2022-10-09T21:59:33.488Z,5.05
2022-10-09T22:02:00.578Z,5.68
2022-10-09T22:04:27.709Z,4.25
2022-10-09T22:06:55.001Z,4.70
2022-10-09T22:09:23.469Z,5.68
2022-10-09T22:11:50.587Z,4.65
2022-10-09T22:14:17.697Z,4.38
2022-10-09T22:16:44.797Z,4.32
2022-10-09T22:19:12.143Z,4.53
2022-10-09T22:21:39.248Z,5.05
2022-10-09T22:24:06.465Z,4.35
2022-10-09T22:26:35.392Z,4.50
2022-10-09T22:29:02.500Z,3.92
2022-10-09T22:31:29.624Z,5.57
2022-10-09T22:33:59.648Z,4.45
2022-10-09T22:36:28.671Z,4.60
2022-10-09T22:38:57.469Z,5.18
2022-10-09T22:41:26.548Z,4.85
2022-10-09T22:43:57.876Z,4.70
2022-10-09T22:46:26.625Z,3.88
2022-10-09T22:48:54.377Z,5.70
2022-10-09T22:51:22.771Z,4.82
2022-10-09T22:53:50.036Z,7.50
2022-10-09T22:56:19.552Z,3.60
2022-10-09T22:58:47.459Z,4.90
2022-10-09T23:01:19.903Z,6.00
2022-10-09T23:03:47.064Z,4.90
2022-10-09T23:06:16.432Z,4.75
2022-10-09T23:08:45.800Z,4.43
2022-10-09T23:11:13.568Z,4.18
2022-10-09T23:13:40.782Z,4.18
2022-10-09T23:16:10.501Z,3.70
2022-10-09T23:18:40.239Z,5.82
2022-10-09T23:21:10.660Z,4.22
2022-10-09T23:23:38.269Z,3.47
2022-10-09T23:26:06.646Z,4.40
2022-10-09T23:28:33.891Z,4.97
2022-10-09T23:31:01.871Z,3.85
2022-10-09T23:33:28.976Z,5.70
2022-10-09T23:35:57.678Z,4.80
2022-10-09T23:38:24.901Z,4.32
2022-10-09T23:40:56.007Z,3.25
2022-10-09T23:43:23.246Z,4.63
2022-10-09T23:45:50.378Z,3.90
2022-10-09T23:48:17.475Z,5.25
2022-10-09T23:50:44.703Z,4.30
2022-10-09T23:53:13.158Z,4.40
2022-10-09T23:55:40.259Z,4.20
2022-10-09T23:58:07.363Z,4.03
